createdAt,value
2023-03-05T00:01:24.472Z,5.91
2023-03-05T00:03:54.045Z,5.89
2023-03-05T00:06:22.738Z,5.91
2023-03-05T00:08:51.554Z,5.85
2023-03-05T00:11:19.071Z,5.78
2023-03-05T00:13:46.976Z,5.73
2023-03-05T00:16:16.259Z,5.71
2023-03-05T00:18:44.865Z,5.68
2023-03-05T00:21:28.355Z,5.71
2023-03-05T00:23:57.200Z,5.72
2023-03-05T00:26:26.674Z,5.71
2023-03-05T00:28:57.207Z,5.67
2023-03-05T00:31:30.994Z,5.70
2023-03-05T00:34:07.672Z,5.64
2023-03-05T00:36:38.883Z,5.62
2023-03-05T00:39:05.858Z,5.62
2023-03-05T00:41:33.158Z,5.61
2023-03-05T00:44:00.250Z,5.62
2023-03-05T00:46:27.655Z,5.60
2023-03-05T00:48:56.513Z,5.58
2023-03-05T00:51:24.568Z,5.61
2023-03-05T00:53:51.579Z,5.61
2023-03-05T00:56:18.727Z,5.57
2023-03-05T00:58:46.063Z,5.56
2023-03-05T01:01:13.312Z,5.58
2023-03-05T01:03:40.555Z,5.57
2023-03-05T01:06:12.697Z,5.54
2023-03-05T01:08:40.100Z,5.58
2023-03-05T01:11:08.309Z,5.57
2023-03-05T01:13:36.170Z,5.53
2023-03-05T01:16:04.417Z,5.53
2023-03-05T01:18:31.723Z,5.53
2023-03-05T01:20:58.723Z,5.58
2023-03-05T01:23:25.904Z,5.51
2023-03-05T01:26:00.371Z,5.50
2023-03-05T01:28:28.319Z,5.52
2023-03-05T01:30:55.760Z,5.50
2023-03-05T01:33:22.720Z,5.44
2023-03-05T01:35:50.299Z,5.41
2023-03-05T01:38:18.124Z,5.36
2023-03-05T01:40:45.503Z,5.30
2023-03-05T01:43:12.466Z,5.31
2023-03-05T01:46:23.170Z,5.33
2023-03-05T01:49:01.529Z,5.17
2023-03-05T01:51:37.893Z,5.19
2023-03-05T01:54:07.523Z,5.09
2023-03-05T01:56:34.711Z,5.15
2023-03-05T01:59:03.723Z,5.11
2023-03-05T02:01:46.578Z,5.06
2023-03-05T02:04:17.272Z,5.09
2023-03-05T02:06:44.912Z,5.09
2023-03-05T02:09:12.806Z,5.04
2023-03-05T02:11:40.268Z,5.05
2023-03-05T02:14:10.231Z,4.99
2023-03-05T02:16:39.134Z,5.02
2023-03-05T02:19:10.368Z,5.00
2023-03-05T02:21:49.893Z,5.00
2023-03-05T02:24:34.340Z,4.97
2023-03-05T02:27:02.935Z,5.00
2023-03-05T02:29:32.311Z,4.98
2023-03-05T02:31:59.896Z,5.00
2023-03-05T02:34:26.946Z,4.96
2023-03-05T02:36:55.589Z,4.95
2023-03-05T02:39:22.779Z,4.99
2023-03-05T02:41:49.733Z,4.96
2023-03-05T02:44:17.709Z,4.96
2023-03-05T02:46:44.658Z,4.96
2023-03-05T02:49:11.763Z,4.97
2023-03-05T02:51:38.753Z,4.94
2023-03-05T02:54:05.773Z,4.99
2023-03-05T02:56:33.154Z,4.98
2023-03-05T02:59:00.127Z,4.98
2023-03-05T03:01:28.471Z,4.98
2023-03-05T03:03:55.776Z,5.00
2023-03-05T03:06:22.941Z,4.98
2023-03-05T03:08:49.922Z,5.00
2023-03-05T03:11:17.675Z,4.96
2023-03-05T03:13:44.751Z,4.95
2023-03-05T03:16:14.551Z,4.96
2023-03-05T03:18:42.648Z,4.97
2023-03-05T03:21:16.262Z,4.98
2023-03-05T03:23:43.235Z,4.93
2023-03-05T03:26:10.246Z,4.96
2023-03-05T03:28:37.225Z,4.97
2023-03-05T03:31:04.372Z,4.96
2023-03-05T03:33:32.121Z,4.94
2023-03-05T03:35:59.151Z,4.97
2023-03-05T03:38:26.328Z,4.97
2023-03-05T03:40:53.484Z,4.95
2023-03-05T03:43:20.446Z,4.99
2023-03-05T03:45:47.851Z,4.94
2023-03-05T03:48:15.189Z,4.98
2023-03-05T03:50:43.909Z,4.99
2023-03-05T03:53:14.459Z,4.96
2023-03-05T03:55:42.990Z,4.97
2023-03-05T03:58:10.502Z,5.00
2023-03-05T04:00:38.843Z,5.00
2023-03-05T04:03:05.835Z,4.96
2023-03-05T04:05:32.795Z,4.99
2023-03-05T04:08:01.419Z,5.00
2023-03-05T04:10:28.370Z,5.01
2023-03-05T04:12:55.392Z,5.00
2023-03-05T04:15:22.477Z,5.02
2023-03-05T04:17:49.621Z,4.96
2023-03-05T04:20:17.081Z,4.98
2023-03-05T04:22:44.063Z,4.97
2023-03-05T04:25:11.053Z,5.01
2023-03-05T04:27:40.244Z,5.05
2023-03-05T04:30:09.124Z,5.06
2023-03-05T04:32:36.209Z,5.03
2023-03-05T04:35:03.718Z,5.03
2023-03-05T04:37:30.694Z,5.07
2023-03-05T04:39:57.779Z,5.10
2023-03-05T04:42:24.906Z,5.09
2023-03-05T04:44:52.182Z,5.05
2023-03-05T04:47:19.825Z,5.14
2023-03-05T04:49:46.941Z,5.14
2023-03-05T04:52:15.038Z,5.13
2023-03-05T04:54:44.097Z,5.12
2023-03-05T04:57:11.131Z,5.10
2023-03-05T04:59:38.757Z,5.12
2023-03-05T05:02:05.921Z,5.11
2023-03-05T05:04:33.669Z,5.14
2023-03-05T05:07:00.741Z,5.11
2023-03-05T05:09:27.782Z,5.14
2023-03-05T05:11:54.857Z,5.11
2023-03-05T05:14:22.195Z,5.11
2023-03-05T05:16:49.216Z,5.11
2023-03-05T05:19:16.369Z,5.12
2023-03-05T05:21:43.450Z,5.14
2023-03-05T05:24:10.570Z,5.10
2023-03-05T05:26:37.565Z,5.11
2023-03-05T05:29:04.581Z,5.09
2023-03-05T05:31:31.743Z,5.09
2023-03-05T05:33:58.757Z,5.03
2023-03-05T05:36:25.901Z,5.05
2023-03-05T05:38:52.863Z,5.04
2023-03-05T05:41:20.321Z,5.03
2023-03-05T05:43:48.804Z,5.01
2023-03-05T05:46:19.284Z,4.93
2023-03-05T05:48:47.197Z,4.96
2023-03-05T05:51:21.083Z,4.93
2023-03-05T05:53:49.000Z,4.89
2023-03-05T05:56:17.725Z,4.81
2023-03-05T05:58:47.672Z,4.81
2023-03-05T06:01:22.739Z,4.82
2023-03-05T06:03:50.387Z,4.77
2023-03-05T06:06:20.660Z,4.77
2023-03-05T06:08:48.675Z,4.75
2023-03-05T06:11:18.881Z,4.76
2023-03-05T06:13:47.553Z,4.80
2023-03-05T06:16:21.794Z,4.83
2023-03-05T06:18:51.697Z,4.83
2023-03-05T06:21:21.108Z,4.80
2023-03-05T06:23:49.341Z,4.82
2023-03-05T06:26:20.755Z,4.81
2023-03-05T06:28:48.276Z,4.81
2023-03-05T06:31:27.239Z,4.90
2023-03-05T06:34:03.252Z,4.84
2023-03-05T06:36:30.981Z,4.85
2023-03-05T06:38:59.206Z,4.92
2023-03-05T06:41:29.658Z,4.87
2023-03-05T06:43:59.137Z,4.89
2023-03-05T06:46:29.839Z,4.87
2023-03-05T06:48:59.956Z,4.90
2023-03-05T06:51:36.054Z,4.89
2023-03-05T06:54:11.108Z,4.88
2023-03-05T06:56:40.284Z,4.89
2023-03-05T06:59:08.608Z,4.87
2023-03-05T07:01:35.801Z,4.88
2023-03-05T07:04:03.309Z,4.91
2023-03-05T07:06:34.588Z,4.94
2023-03-05T07:09:02.364Z,4.98
2023-03-05T07:11:30.046Z,4.97
2023-03-05T07:13:57.014Z,4.96
2023-03-05T07:16:27.412Z,5.04
2023-03-05T07:18:57.236Z,5.06
2023-03-05T07:21:28.253Z,5.09
2023-03-05T07:23:57.167Z,5.10
2023-03-05T07:26:25.548Z,5.12
2023-03-05T07:28:52.929Z,5.20
2023-03-05T07:31:27.505Z,5.25
2023-03-05T07:33:54.784Z,5.21
2023-03-05T07:36:22.072Z,5.22
2023-03-05T07:38:49.148Z,5.26
2023-03-05T07:41:19.877Z,5.29
2023-03-05T07:43:49.490Z,5.27
2023-03-05T07:46:19.128Z,5.32
2023-03-05T07:48:46.290Z,5.37
2023-03-05T07:51:17.770Z,5.46
2023-03-05T07:53:46.518Z,5.42
2023-03-05T07:56:14.682Z,5.47
2023-03-05T07:58:41.605Z,5.55
2023-03-05T08:01:14.249Z,5.62
2023-03-05T08:03:43.698Z,5.63
2023-03-05T08:06:12.709Z,5.62
2023-03-05T08:08:39.848Z,5.66
2023-03-05T08:11:13.016Z,5.72
2023-03-05T08:13:40.584Z,5.79
2023-03-05T08:16:12.431Z,5.83
2023-03-05T08:18:39.458Z,5.81
2023-03-05T08:21:07.361Z,5.89
2023-03-05T08:23:34.592Z,5.95
2023-03-05T08:26:01.735Z,6.00
2023-03-05T08:28:28.723Z,6.02
2023-03-05T08:30:55.704Z,6.08
2023-03-05T08:33:22.693Z,6.07
2023-03-05T08:35:49.790Z,6.10
2023-03-05T08:38:16.766Z,6.16
2023-03-05T08:40:43.720Z,6.21
2023-03-05T08:43:10.700Z,6.25
2023-03-05T08:45:40.105Z,6.26
2023-03-05T08:48:07.275Z,6.29
2023-03-05T08:50:38.856Z,6.38
2023-03-05T08:53:06.009Z,6.46
2023-03-05T08:55:33.036Z,6.44
2023-03-05T08:58:00.156Z,6.41
2023-03-05T09:00:27.134Z,6.56
2023-03-05T09:02:54.300Z,6.60
2023-03-05T09:05:21.477Z,6.50
2023-03-05T09:07:48.838Z,6.51
2023-03-05T09:10:18.417Z,6.65
2023-03-05T09:12:45.572Z,6.68
2023-03-05T09:15:12.610Z,6.70
2023-03-05T09:17:41.998Z,6.80
2023-03-05T09:20:14.079Z,6.74
2023-03-05T09:22:41.610Z,6.79
2023-03-05T09:25:11.001Z,6.88
2023-03-05T09:27:39.566Z,6.90
2023-03-05T09:30:08.237Z,6.96
2023-03-05T09:32:35.253Z,7.01
2023-03-05T09:35:05.130Z,7.12
2023-03-05T09:37:32.998Z,7.21
2023-03-05T09:40:00.305Z,7.21
2023-03-05T09:43:18.625Z,7.05
2023-03-05T09:46:01.545Z,7.24
2023-03-05T09:48:58.392Z,7.32
2023-03-05T09:51:31.455Z,7.41
2023-03-05T09:54:03.016Z,7.30
2023-03-05T09:56:37.483Z,7.41
2023-03-05T09:59:28.894Z,7.53
2023-03-05T10:02:11.725Z,7.57
2023-03-05T10:04:52.384Z,7.55
2023-03-05T10:07:47.608Z,7.27
2023-03-05T10:10:24.687Z,6.61
2023-03-05T10:12:57.610Z,6.37
2023-03-05T10:15:54.015Z,6.71
2023-03-05T10:18:39.994Z,6.89
2023-03-05T10:21:18.328Z,6.97
2023-03-05T10:24:49.236Z,7.08
2023-03-05T10:27:41.168Z,7.17
2023-03-05T10:30:20.038Z,7.21
2023-03-05T10:32:58.188Z,7.12
2023-03-05T10:35:59.897Z,7.08
2023-03-05T10:38:45.549Z,7.21
2023-03-05T10:41:55.533Z,7.17
2023-03-05T10:44:52.757Z,7.21
2023-03-05T10:47:30.067Z,7.15
2023-03-05T10:49:59.155Z,7.25
2023-03-05T10:52:46.689Z,7.30
2023-03-05T10:55:17.835Z,7.32
2023-03-05T10:57:45.272Z,7.31
2023-03-05T11:00:19.850Z,7.37
2023-03-05T11:03:00.103Z,7.58
2023-03-05T11:05:42.072Z,7.73
2023-03-05T11:08:23.949Z,7.85
2023-03-05T11:11:21.784Z,7.82
2023-03-05T11:14:03.848Z,7.70
2023-03-05T11:16:47.925Z,7.67
2023-03-05T11:19:33.268Z,7.68
2023-03-05T11:22:22.483Z,7.77
2023-03-05T11:25:16.228Z,7.68
2023-03-05T11:27:57.149Z,7.79
2023-03-05T11:30:35.852Z,7.95
2023-03-05T11:33:22.693Z,8.08
2023-03-05T11:35:52.794Z,8.21
2023-03-05T11:38:27.289Z,8.16
2023-03-05T11:40:57.236Z,8.10
2023-03-05T11:43:26.176Z,8.38
2023-03-05T11:46:01.662Z,8.28
2023-03-05T11:48:47.444Z,8.32
2023-03-05T11:51:57.474Z,8.14
2023-03-05T11:54:36.572Z,8.20
2023-03-05T11:57:06.098Z,8.38
2023-03-05T11:59:39.676Z,8.24
2023-03-05T12:02:27.942Z,8.41
2023-03-05T12:04:56.078Z,8.48
2023-03-05T12:07:41.213Z,8.07
2023-03-05T12:10:18.618Z,8.46
2023-03-05T12:13:12.218Z,8.43
2023-03-05T12:16:05.908Z,8.55
2023-03-05T12:19:00.129Z,8.46
2023-03-05T12:21:39.417Z,8.18
2023-03-05T12:24:26.725Z,7.99
2023-03-05T12:27:04.104Z,7.90
2023-03-05T12:29:43.275Z,7.75
2023-03-05T12:32:35.155Z,7.51
2023-03-05T12:35:15.026Z,7.92
2023-03-05T12:37:45.202Z,7.92
2023-03-05T12:40:28.160Z,7.91
2023-03-05T12:43:26.041Z,8.04
2023-03-05T12:46:25.006Z,8.11
2023-03-05T12:48:52.470Z,8.15
2023-03-05T12:51:41.574Z,8.13
2023-03-05T12:54:39.736Z,8.14
2023-03-05T12:57:20.024Z,8.14
2023-03-05T13:00:21.477Z,8.11
2023-03-05T13:02:58.014Z,8.06
2023-03-05T13:05:38.604Z,8.25
2023-03-05T13:08:31.794Z,8.09
2023-03-05T13:11:08.445Z,8.16
2023-03-05T13:13:41.494Z,8.23
2023-03-05T13:16:29.264Z,8.22
2023-03-05T13:19:01.149Z,8.03
2023-03-05T13:21:35.430Z,8.00
2023-03-05T13:24:04.053Z,8.15
2023-03-05T13:26:40.932Z,8.20
2023-03-05T13:29:20.731Z,8.08
2023-03-05T13:32:30.902Z,8.17
2023-03-05T13:35:01.244Z,8.39
2023-03-05T13:37:33.228Z,8.27
2023-03-05T13:40:17.814Z,8.27
2023-03-05T13:42:44.856Z,8.44
2023-03-05T13:45:32.003Z,8.44
2023-03-05T13:48:03.029Z,8.46
2023-03-05T13:50:40.326Z,8.32
2023-03-05T13:53:26.559Z,8.34
2023-03-05T13:56:04.102Z,8.38
2023-03-05T13:58:57.591Z,8.26
2023-03-05T14:01:40.550Z,8.36
2023-03-05T14:04:19.235Z,8.34
2023-03-05T14:07:00.164Z,8.02
2023-03-05T14:09:30.677Z,8.42
2023-03-05T14:12:27.405Z,8.32
2023-03-05T14:14:54.601Z,8.57
2023-03-05T14:17:43.184Z,8.57
2023-03-05T14:20:30.021Z,8.62
2023-03-05T14:23:00.711Z,8.58
2023-03-05T14:25:39.631Z,8.67
2023-03-05T14:28:17.266Z,8.58
2023-03-05T14:30:50.770Z,8.57
2023-03-05T14:33:38.083Z,8.62
2023-03-05T14:36:05.767Z,8.69
2023-03-05T14:38:34.326Z,8.64
2023-03-05T14:41:30.402Z,8.62
2023-03-05T14:43:57.341Z,8.65
2023-03-05T14:46:24.684Z,8.58
2023-03-05T14:48:51.793Z,8.48
2023-03-05T14:51:19.191Z,8.57
2023-03-05T14:53:51.016Z,8.56
2023-03-05T14:56:27.917Z,8.60
2023-03-05T14:58:56.539Z,8.59
2023-03-05T15:01:25.297Z,8.55
2023-03-05T15:03:52.344Z,8.54
2023-03-05T15:06:38.134Z,8.53
2023-03-05T15:09:07.638Z,8.47
2023-03-05T15:11:35.149Z,8.38
2023-03-05T15:14:02.162Z,8.34
2023-03-05T15:16:32.103Z,7.82
2023-03-05T15:18:59.200Z,8.07
2023-03-05T15:21:26.246Z,8.16
2023-03-05T15:23:53.188Z,8.12
2023-03-05T15:26:22.000Z,8.18
2023-03-05T15:28:49.078Z,7.96
2023-03-05T15:31:18.676Z,8.08
2023-03-05T15:33:45.780Z,7.92
2023-03-05T15:36:13.728Z,7.97
2023-03-05T15:38:41.676Z,7.99
2023-03-05T15:41:08.683Z,7.93
2023-03-05T15:43:36.942Z,7.98
2023-03-05T15:46:06.984Z,7.83
2023-03-05T15:48:34.043Z,7.92
2023-03-05T15:51:01.946Z,7.89
2023-03-05T15:53:28.912Z,7.85
2023-03-05T15:55:55.960Z,7.88
2023-03-05T15:58:23.021Z,7.90
2023-03-05T16:00:49.942Z,7.88
2023-03-05T16:03:16.929Z,7.80
2023-03-05T16:05:44.033Z,7.82
2023-03-05T16:08:11.143Z,7.79
2023-03-05T16:10:40.956Z,7.74
2023-03-05T16:13:14.317Z,7.70
2023-03-05T16:15:43.284Z,7.91
2023-03-05T16:18:16.350Z,7.83
2023-03-05T16:20:43.340Z,7.76
2023-03-05T16:23:10.480Z,7.78
2023-03-05T16:25:38.059Z,7.71
2023-03-05T16:28:05.660Z,7.71
2023-03-05T16:30:35.816Z,7.71
2023-03-05T16:33:02.795Z,7.97
2023-03-05T16:35:30.019Z,7.78
2023-03-05T16:37:58.279Z,7.72
2023-03-05T16:40:27.061Z,7.68
2023-03-05T16:42:56.796Z,7.63
2023-03-05T16:45:23.760Z,7.53
2023-03-05T16:47:52.818Z,7.48
2023-03-05T16:50:20.040Z,7.45
2023-03-05T16:52:46.989Z,7.58
2023-03-05T16:55:14.082Z,7.64
2023-03-05T16:57:41.519Z,7.58
2023-03-05T17:00:11.638Z,7.59
2023-03-05T17:02:38.709Z,7.50
2023-03-05T17:05:06.170Z,7.46
2023-03-05T17:07:33.180Z,7.48
2023-03-05T17:10:00.181Z,7.54
2023-03-05T17:12:27.159Z,7.56
2023-03-05T17:14:54.200Z,7.27
2023-03-05T17:17:21.129Z,7.32
2023-03-05T17:19:48.401Z,7.38
2023-03-05T17:22:16.620Z,7.38
2023-03-05T17:24:43.723Z,7.37
2023-03-05T17:27:10.946Z,7.38
2023-03-05T17:29:37.978Z,7.38
2023-03-05T17:32:05.653Z,7.41
2023-03-05T17:34:36.475Z,7.30
2023-03-05T17:37:05.164Z,7.20
2023-03-05T17:39:32.578Z,6.66
2023-03-05T17:42:00.176Z,6.87
2023-03-05T17:44:27.351Z,7.06
2023-03-05T17:46:54.316Z,6.93
2023-03-05T17:49:21.310Z,7.07
2023-03-05T17:51:48.298Z,6.91
2023-03-05T17:54:15.376Z,6.92
2023-03-05T17:56:42.325Z,6.88
2023-03-05T17:59:09.387Z,7.09
2023-03-05T18:01:36.450Z,6.96
2023-03-05T18:04:03.596Z,6.95
2023-03-05T18:06:32.043Z,6.89
2023-03-05T18:08:59.140Z,6.96
2023-03-05T18:11:27.479Z,6.98
2023-03-05T18:13:54.518Z,6.98
2023-03-05T18:16:23.383Z,7.02
2023-03-05T18:18:50.936Z,7.00
2023-03-05T18:21:22.755Z,6.95
2023-03-05T18:23:51.068Z,6.89
2023-03-05T18:26:18.433Z,6.80
2023-03-05T18:28:45.527Z,6.83
2023-03-05T18:31:12.540Z,6.79
2023-03-05T18:33:39.545Z,6.73
2023-03-05T18:36:07.149Z,6.72
2023-03-05T18:38:35.059Z,6.70
2023-03-05T18:41:03.561Z,6.68
2023-03-05T18:43:30.908Z,6.69
2023-03-05T18:45:58.839Z,6.68
2023-03-05T18:48:26.325Z,6.63
2023-03-05T18:50:54.544Z,6.63
2023-03-05T18:53:22.749Z,6.60
2023-03-05T18:55:51.635Z,6.57
2023-03-05T18:58:19.289Z,6.57
2023-03-05T19:00:47.689Z,6.54
2023-03-05T19:03:15.955Z,6.52
2023-03-05T19:05:43.133Z,6.54
2023-03-05T19:08:10.704Z,6.48
2023-03-05T19:10:38.382Z,6.47
2023-03-05T19:13:30.660Z,6.46
2023-03-05T19:15:57.699Z,6.44
2023-03-05T19:18:26.455Z,6.43
2023-03-05T19:20:56.483Z,6.40
2023-03-05T19:23:25.332Z,6.38
2023-03-05T19:25:52.341Z,6.38
2023-03-05T19:28:19.545Z,6.38
2023-03-05T19:30:49.378Z,6.33
2023-03-05T19:33:16.387Z,6.30
2023-03-05T19:35:43.652Z,6.28
2023-03-05T19:38:10.633Z,6.22
2023-03-05T19:40:40.529Z,6.29
2023-03-05T19:43:08.069Z,6.36
2023-03-05T19:45:35.262Z,6.28
2023-03-05T19:48:02.413Z,6.23
2023-03-05T19:50:29.643Z,6.26
2023-03-05T19:52:56.658Z,6.25
2023-03-05T19:55:23.644Z,6.24
2023-03-05T19:57:50.774Z,6.20
2023-03-05T20:00:18.622Z,6.22
2023-03-05T20:02:45.734Z,6.23
2023-03-05T20:05:12.737Z,6.24
2023-03-05T20:07:39.745Z,6.09
2023-03-05T20:10:07.363Z,6.07
2023-03-05T20:12:36.399Z,5.93
2023-03-05T20:15:03.737Z,5.96
2023-03-05T20:17:30.746Z,5.94
2023-03-05T20:20:00.162Z,5.93
2023-03-05T20:22:27.134Z,5.92
2023-03-05T20:24:54.061Z,5.91
2023-03-05T20:27:21.032Z,5.88
2023-03-05T20:29:48.023Z,5.85
2023-03-05T20:32:15.261Z,5.86
2023-03-05T20:34:42.367Z,5.85
2023-03-05T20:37:09.332Z,5.79
2023-03-05T20:39:36.309Z,5.78
2023-03-05T20:42:03.572Z,5.79
2023-03-05T20:44:30.594Z,5.74
2023-03-05T20:47:48.015Z,5.74
2023-03-05T20:50:16.334Z,5.71
2023-03-05T20:52:43.411Z,5.71
2023-03-05T20:55:12.055Z,5.72
2023-03-05T20:57:39.389Z,5.69
2023-03-05T21:00:07.273Z,5.67
2023-03-05T21:02:34.406Z,5.65
2023-03-05T21:05:01.378Z,5.64
2023-03-05T21:07:29.684Z,5.64
2023-03-05T21:09:56.729Z,5.65
2023-03-05T21:12:23.740Z,5.62
2023-03-05T21:14:50.683Z,5.61
2023-03-05T21:17:18.045Z,5.62
2023-03-05T21:19:45.106Z,5.57
2023-03-05T21:22:12.075Z,5.55
2023-03-05T21:25:20.815Z,5.59
2023-03-05T21:28:11.520Z,5.54
2023-03-05T21:30:43.560Z,5.53
2023-03-05T21:33:32.306Z,5.53
2023-03-05T21:35:59.327Z,5.45
2023-03-05T21:38:29.815Z,5.46
2023-03-05T21:40:58.825Z,5.47
2023-03-05T21:43:26.975Z,5.46
2023-03-05T21:45:57.127Z,5.48
2023-03-05T21:48:25.145Z,5.44
2023-03-05T21:50:53.064Z,5.44
2023-03-05T21:53:20.329Z,5.41
2023-03-05T21:56:31.005Z,5.41
2023-03-05T21:58:58.050Z,5.40
2023-03-05T22:01:25.036Z,5.43
2023-03-05T22:03:52.165Z,5.43
2023-03-05T22:06:20.145Z,5.40
2023-03-05T22:08:47.615Z,5.38
2023-03-05T22:11:17.302Z,5.37
2023-03-05T22:13:44.421Z,5.41
2023-03-05T22:16:14.349Z,5.40
2023-03-05T22:18:41.381Z,5.42
2023-03-05T22:21:19.242Z,5.36
2023-03-05T22:23:46.515Z,5.38
2023-03-05T22:26:13.525Z,5.36
2023-03-05T22:28:40.830Z,5.35
2023-03-05T22:31:08.461Z,5.32
2023-03-05T22:33:35.471Z,5.29
2023-03-05T22:36:12.092Z,5.27
2023-03-05T22:38:39.157Z,5.25
2023-03-05T22:41:11.610Z,5.26
2023-03-05T22:43:38.738Z,5.19
2023-03-05T22:46:15.224Z,5.23
2023-03-05T22:48:43.023Z,5.23
2023-03-05T22:51:11.416Z,5.24
2023-03-05T22:53:39.660Z,5.21
2023-03-05T22:56:16.480Z,5.17
2023-03-05T22:58:43.944Z,5.19
2023-03-05T23:01:20.853Z,5.18
2023-03-05T23:04:53.278Z,5.22
2023-03-05T23:07:33.494Z,5.19
2023-03-05T23:10:18.642Z,5.16
2023-03-05T23:12:50.072Z,5.16
2023-03-05T23:15:31.788Z,5.20
2023-03-05T23:18:00.595Z,5.14
2023-03-05T23:20:34.072Z,5.13
2023-03-05T23:23:02.044Z,5.11
2023-03-05T23:25:31.788Z,5.11
2023-03-05T23:27:59.574Z,5.11
2023-03-05T23:30:33.061Z,5.05
2023-03-05T23:33:13.396Z,5.01
2023-03-05T23:35:43.784Z,5.04
2023-03-05T23:38:14.674Z,5.05
2023-03-05T23:40:46.264Z,5.09
2023-03-05T23:43:14.512Z,5.01
2023-03-05T23:45:43.860Z,5.00
2023-03-05T23:48:11.599Z,4.98
2023-03-05T23:50:44.292Z,4.96
2023-03-05T23:53:21.887Z,4.93
2023-03-05T23:55:49.800Z,4.92
2023-03-05T23:58:19.093Z,4.87
